map of CPT home
CPT - Airport
Location
City:  Cape Town, Western Cape, South Africa
Name:Cape Town International Airport
Old (Alt.):D.F. Malan
ICAO:FACT
IATA:CPT

Details
Type:Airport (Aerodrome, Airfield)
Use:Public/Civil, International (customs port of entry)
Latitude:3358'17"S (-33.971368)
Longitude:1836'15"E (18.604292)
Elevation:151 ft (46 m)
Variation:25.30W (WMM2015 magnetic declination)
-0.11 annual change
Runways:2
Longest:10502 × 200 ft (3201 × 61 m), paved

Time
Time Zone:UTC+2
Local Time:

Weather
METAR:FACT 251800Z 21004KT 9999 SCT040 12/05 Q1026 NOSIG

Related Locations
Nearby:
Farthest:PHHF: 11676 mi / 18791 km
Tern Island [French Frigate Shoals Airport], HI, US

Find:

   beyond  
but within

Other Information
Maps:
NOTAMs:
Links:
Sources:

  
flag of South Africa
flag of Western Cape
flag of Cape Town
  

Airport Diagram

Airport diagram for CPT

Airport diagram PDF from South African CAA

Sectional Chart

Flight Planning
at skyvector.com

Satellite Image

Google Maps Satellite view

 

Copyright © 2004-2017 Karl L. Swartz. All rights reserved.
The Great Circle Mapper name and logo are trademarks of the Great Circle Mapper.
All other trademarks mentioned herein belong to their respective owners.
Please see credits for attibutions and further copyright information.

  Follow gcmap on Facebook Follow gcmap on Twitter Follow gcmap on Google+ GCmap on LinkedIn

hCard Microformat

Geo Microformat